createdAt,value
2022-08-31T00:02:18.531Z,13.48
2022-08-31T00:04:48.501Z,13.50
2022-08-31T00:07:18.471Z,13.98
2022-08-31T00:09:48.405Z,14.30
2022-08-31T00:12:18.577Z,14.75
2022-08-31T00:14:50.180Z,14.95
2022-08-31T00:17:20.374Z,14.10
2022-08-31T00:19:50.271Z,13.98
2022-08-31T00:22:20.203Z,15.02
2022-08-31T00:24:50.094Z,15.23
2022-08-31T00:27:21.962Z,16.33
2022-08-31T00:29:53.172Z,16.35
2022-08-31T00:32:25.398Z,16.38
2022-08-31T00:34:59.173Z,15.13
2022-08-31T00:37:29.074Z,15.70
2022-08-31T00:39:59.005Z,16.33
2022-08-31T00:42:29.092Z,15.68
2022-08-31T00:45:00.346Z,16.00
2022-08-31T00:47:30.313Z,15.20
2022-08-31T00:50:02.273Z,16.00
2022-08-31T00:52:37.744Z,15.15
2022-08-31T00:55:14.037Z,15.27
2022-08-31T00:57:47.647Z,15.77
2022-08-31T01:02:56.165Z,14.82
2022-08-31T01:05:26.770Z,15.60
2022-08-31T01:07:57.535Z,15.05
2022-08-31T01:10:31.821Z,15.50
2022-08-31T01:13:03.104Z,13.68
2022-08-31T01:15:35.814Z,14.82
2022-08-31T01:18:07.760Z,14.75
2022-08-31T01:20:49.091Z,14.30
2022-08-31T01:23:24.478Z,14.60
2022-08-31T01:25:57.049Z,13.93
2022-08-31T01:28:27.693Z,15.10
2022-08-31T01:31:05.538Z,13.80
2022-08-31T01:33:36.899Z,14.40
2022-08-31T01:36:08.092Z,14.27
2022-08-31T01:38:39.325Z,14.48
2022-08-31T01:41:09.502Z,14.73
2022-08-31T01:43:43.177Z,14.93
2022-08-31T01:46:14.758Z,15.02
2022-08-31T01:48:46.699Z,14.95
2022-08-31T01:51:19.072Z,15.18
2022-08-31T01:53:52.913Z,15.32
2022-08-31T01:56:25.264Z,14.55
2022-08-31T01:58:55.166Z,14.23
2022-08-31T02:01:34.307Z,15.65
2022-08-31T02:04:05.497Z,15.18
2022-08-31T02:06:36.187Z,15.05
2022-08-31T02:09:08.300Z,14.60
2022-08-31T02:11:38.484Z,14.40
2022-08-31T02:14:09.406Z,15.30
2022-08-31T02:16:39.948Z,14.30
2022-08-31T02:19:10.387Z,15.18
2022-08-31T02:21:40.567Z,14.52
2022-08-31T02:24:12.587Z,15.38
2022-08-31T02:26:42.917Z,14.38
2022-08-31T02:29:12.998Z,13.98
2022-08-31T02:31:42.990Z,14.70
2022-08-31T02:34:14.100Z,14.23
2022-08-31T02:36:45.287Z,13.07
2022-08-31T02:39:16.645Z,13.43
2022-08-31T02:41:47.334Z,14.50
2022-08-31T02:44:17.284Z,14.13
2022-08-31T02:46:47.179Z,14.70
2022-08-31T02:49:17.126Z,14.40
2022-08-31T02:51:47.282Z,14.68
2022-08-31T02:54:19.521Z,14.55
2022-08-31T02:56:49.352Z,14.05
2022-08-31T02:59:20.817Z,14.60
2022-08-31T03:01:54.288Z,14.57
2022-08-31T03:04:24.463Z,14.85
2022-08-31T03:06:54.460Z,15.13
2022-08-31T03:09:25.909Z,15.07
2022-08-31T03:11:55.804Z,15.45
2022-08-31T03:14:26.577Z,14.73
2022-08-31T03:16:57.792Z,15.07
2022-08-31T03:19:27.853Z,16.77
2022-08-31T03:21:57.750Z,16.60
2022-08-31T03:24:29.163Z,16.88
2022-08-31T03:26:59.224Z,15.63
2022-08-31T03:29:29.185Z,15.82
2022-08-31T03:31:59.118Z,16.55
2022-08-31T03:34:29.137Z,22.75
2022-08-31T03:37:00.712Z,24.55
2022-08-31T03:39:32.089Z,18.25
2022-08-31T03:42:02.089Z,17.95
2022-08-31T03:44:31.943Z,19.98
2022-08-31T03:47:01.953Z,17.63
2022-08-31T03:49:31.903Z,16.52
2022-08-31T03:52:02.311Z,16.63
2022-08-31T03:54:33.703Z,17.20
2022-08-31T03:57:05.383Z,18.75
2022-08-31T03:59:35.371Z,17.25
2022-08-31T04:02:05.528Z,17.77
2022-08-31T04:04:35.466Z,17.55
2022-08-31T04:07:05.411Z,17.00
2022-08-31T04:09:36.731Z,17.50
2022-08-31T04:12:06.699Z,16.33
2022-08-31T04:14:36.617Z,17.55
2022-08-31T04:17:06.763Z,18.00
2022-08-31T04:19:36.703Z,17.67
2022-08-31T04:22:06.615Z,16.23
2022-08-31T04:24:37.952Z,16.08
2022-08-31T04:27:08.600Z,17.55
2022-08-31T04:29:39.598Z,17.92
2022-08-31T04:32:10.002Z,17.70
2022-08-31T04:34:56.084Z,18.00
2022-08-31T04:37:26.696Z,17.02
2022-08-31T04:39:59.124Z,18.60
2022-08-31T04:42:30.191Z,16.63
2022-08-31T04:45:00.224Z,17.50
2022-08-31T04:47:30.515Z,19.27
2022-08-31T04:50:00.838Z,20.00
2022-08-31T04:52:30.849Z,19.02
2022-08-31T04:55:02.965Z,21.48
2022-08-31T04:57:35.513Z,20.10
2022-08-31T05:00:06.958Z,18.73
2022-08-31T05:02:37.482Z,19.20
2022-08-31T05:05:08.414Z,19.70
2022-08-31T05:07:39.257Z,20.00
2022-08-31T05:10:11.631Z,19.58
2022-08-31T05:12:41.478Z,19.45
2022-08-31T05:15:11.959Z,19.58
2022-08-31T05:17:41.906Z,25.15
2022-08-31T05:20:12.019Z,25.23
2022-08-31T05:22:41.893Z,22.98
2022-08-31T05:25:13.072Z,26.23
2022-08-31T05:27:43.303Z,19.65
2022-08-31T05:30:14.311Z,17.73
2022-08-31T05:32:45.767Z,19.23
2022-08-31T05:35:16.332Z,17.05
2022-08-31T05:37:46.473Z,18.30
2022-08-31T05:40:19.422Z,18.25
2022-08-31T05:42:49.827Z,18.30
2022-08-31T05:45:19.804Z,17.90
2022-08-31T05:47:49.612Z,18.20
2022-08-31T05:50:19.741Z,18.10
2022-08-31T05:52:49.929Z,17.17
2022-08-31T05:55:21.302Z,17.25
2022-08-31T05:57:52.727Z,17.55
2022-08-31T06:00:23.287Z,17.83
2022-08-31T06:02:54.034Z,16.35
2022-08-31T06:05:24.150Z,16.65
2022-08-31T06:07:55.235Z,17.45
2022-08-31T06:10:26.844Z,16.50
2022-08-31T06:12:57.774Z,16.30
2022-08-31T06:15:27.689Z,18.02
2022-08-31T06:17:57.858Z,16.48
2022-08-31T06:20:30.286Z,16.33
2022-08-31T06:23:03.124Z,18.92
2022-08-31T06:25:36.697Z,15.13
2022-08-31T06:28:07.413Z,17.73
2022-08-31T06:30:54.336Z,16.45
2022-08-31T06:33:24.988Z,15.98
2022-08-31T06:35:54.830Z,16.00
2022-08-31T06:38:26.529Z,15.20
2022-08-31T06:41:00.605Z,13.57
2022-08-31T06:43:30.525Z,14.93
2022-08-31T06:46:00.517Z,14.95
2022-08-31T06:48:30.549Z,13.75
2022-08-31T06:51:02.886Z,15.35
2022-08-31T06:53:33.038Z,13.73
2022-08-31T06:56:07.101Z,14.55
2022-08-31T06:58:53.900Z,14.95
2022-08-31T07:01:35.527Z,15.50
2022-08-31T07:04:08.313Z,13.63
2022-08-31T07:06:41.004Z,15.23
2022-08-31T07:09:13.273Z,14.18
2022-08-31T07:11:46.435Z,14.65
2022-08-31T07:14:18.385Z,15.15
2022-08-31T07:16:48.314Z,19.70
2022-08-31T07:19:18.978Z,22.60
2022-08-31T07:21:51.191Z,15.45
2022-08-31T07:24:24.292Z,15.68
2022-08-31T07:26:59.024Z,13.93
2022-08-31T07:29:32.043Z,14.93
2022-08-31T07:32:02.815Z,13.82
2022-08-31T07:34:34.011Z,13.95
2022-08-31T07:37:22.639Z,14.25
2022-08-31T07:40:10.566Z,13.90
2022-08-31T07:42:44.572Z,14.38
2022-08-31T07:45:22.516Z,13.45
2022-08-31T07:47:55.268Z,14.60
2022-08-31T07:50:27.398Z,15.05
2022-08-31T07:53:00.397Z,13.23
2022-08-31T07:55:30.568Z,16.50
2022-08-31T07:58:03.517Z,13.38
2022-08-31T08:00:36.135Z,13.07
2022-08-31T08:03:08.356Z,12.63
2022-08-31T08:05:38.786Z,13.55
2022-08-31T08:08:13.908Z,19.98
2022-08-31T08:10:52.152Z,16.42
2022-08-31T08:13:24.457Z,27.60
2022-08-31T08:15:54.662Z,20.65
2022-08-31T08:18:25.317Z,18.27
2022-08-31T08:20:55.526Z,14.95
2022-08-31T08:23:28.279Z,13.18
2022-08-31T08:26:01.078Z,12.02
2022-08-31T08:28:39.767Z,11.65
2022-08-31T08:31:15.352Z,12.68
2022-08-31T08:33:46.504Z,12.32
2022-08-31T08:36:18.377Z,13.55
2022-08-31T08:38:51.253Z,11.65
2022-08-31T08:41:24.761Z,13.85
2022-08-31T08:46:35.329Z,17.90
2022-08-31T08:49:16.291Z,13.88
2022-08-31T08:51:48.118Z,11.48
2022-08-31T08:54:27.412Z,11.75
2022-08-31T08:56:58.040Z,11.07
2022-08-31T08:59:29.739Z,11.57
2022-08-31T09:02:07.046Z,10.82
2022-08-31T09:05:00.207Z,10.98
2022-08-31T09:07:44.505Z,9.70
2022-08-31T09:10:26.759Z,10.23
2022-08-31T09:13:09.879Z,10.60
2022-08-31T09:15:53.972Z,9.03
2022-08-31T09:18:33.267Z,10.48
2022-08-31T09:21:05.874Z,11.85
2022-08-31T09:23:44.301Z,10.82
2022-08-31T09:26:17.674Z,11.30
2022-08-31T09:28:52.958Z,10.55
2022-08-31T09:31:46.634Z,10.00
2022-08-31T09:34:29.646Z,9.35
2022-08-31T09:37:16.575Z,11.10
2022-08-31T09:39:49.822Z,11.25
2022-08-31T09:42:31.050Z,12.05
2022-08-31T09:45:04.173Z,11.18
2022-08-31T09:47:52.198Z,11.25
2022-08-31T09:50:29.355Z,12.15
2022-08-31T09:53:41.253Z,18.48
2022-08-31T09:56:15.798Z,22.80
2022-08-31T09:58:49.240Z,12.05
2022-08-31T10:01:34.100Z,9.30
2022-08-31T10:04:18.328Z,10.93
2022-08-31T10:06:55.345Z,12.43
2022-08-31T10:09:37.307Z,10.63
2022-08-31T10:12:12.622Z,9.73
2022-08-31T10:14:50.819Z,10.57
2022-08-31T10:17:32.007Z,11.63
2022-08-31T10:20:08.986Z,9.30
2022-08-31T10:22:42.520Z,10.88
2022-08-31T10:25:21.971Z,9.43
2022-08-31T10:27:58.695Z,10.30
2022-08-31T10:30:39.281Z,8.98
2022-08-31T10:33:17.968Z,9.15
2022-08-31T10:35:55.932Z,9.20
2022-08-31T10:38:31.849Z,12.48
2022-08-31T10:41:11.484Z,13.43
2022-08-31T10:43:49.134Z,9.95
2022-08-31T10:46:19.259Z,10.23
2022-08-31T10:48:54.428Z,9.82
2022-08-31T10:51:34.077Z,9.88
2022-08-31T10:54:24.710Z,8.60
2022-08-31T10:57:01.335Z,8.50
2022-08-31T10:59:37.225Z,9.18
2022-08-31T11:02:33.576Z,10.20
2022-08-31T11:05:26.165Z,9.18
2022-08-31T11:08:06.688Z,9.57
2022-08-31T11:10:48.483Z,9.00
2022-08-31T11:13:39.680Z,9.45
2022-08-31T11:16:23.446Z,9.13
2022-08-31T11:19:16.863Z,9.75
2022-08-31T11:22:05.625Z,10.65
2022-08-31T11:25:08.805Z,11.02
2022-08-31T11:27:43.224Z,10.73
2022-08-31T11:30:24.398Z,9.52
2022-08-31T11:32:57.058Z,9.07
2022-08-31T11:36:05.375Z,9.93
2022-08-31T11:38:48.786Z,10.68
2022-08-31T11:41:39.249Z,9.32
2022-08-31T11:44:11.336Z,9.18
2022-08-31T11:46:53.169Z,9.93
2022-08-31T11:49:43.810Z,9.82
2022-08-31T11:52:29.698Z,10.43
2022-08-31T11:55:28.526Z,10.93
2022-08-31T11:58:23.133Z,10.13
2022-08-31T12:00:58.598Z,9.88
2022-08-31T12:03:50.759Z,10.95
2022-08-31T12:07:11.198Z,9.90
2022-08-31T12:10:04.647Z,10.65
2022-08-31T12:12:51.353Z,10.25
2022-08-31T12:15:33.163Z,9.40
2022-08-31T12:18:18.647Z,10.35
2022-08-31T12:21:15.495Z,11.20
2022-08-31T12:23:59.732Z,9.20
2022-08-31T12:27:00.436Z,9.07
2022-08-31T12:29:32.455Z,11.70
2022-08-31T12:32:32.709Z,9.80
2022-08-31T12:35:15.598Z,11.32
2022-08-31T12:37:46.505Z,10.98
2022-08-31T12:40:20.926Z,10.35
2022-08-31T12:42:58.004Z,9.45
2022-08-31T12:45:56.488Z,10.30
2022-08-31T12:49:02.904Z,8.65
2022-08-31T12:51:44.464Z,8.90
2022-08-31T12:54:30.924Z,8.80
2022-08-31T12:57:15.149Z,7.97
2022-08-31T13:00:02.098Z,8.48
2022-08-31T13:02:35.849Z,7.88
2022-08-31T13:07:45.228Z,7.18
2022-08-31T13:10:17.500Z,6.78
2022-08-31T13:12:52.569Z,6.63
2022-08-31T13:15:25.511Z,7.60
2022-08-31T13:17:56.610Z,7.70
2022-08-31T13:20:35.554Z,8.13
2022-08-31T13:23:11.689Z,10.13
2022-08-31T13:25:42.418Z,12.00
2022-08-31T13:28:26.232Z,16.85
2022-08-31T13:31:03.132Z,19.00
2022-08-31T13:33:36.060Z,17.60
2022-08-31T13:36:11.111Z,16.63
2022-08-31T13:38:49.995Z,19.98
2022-08-31T13:41:28.396Z,18.35
2022-08-31T13:44:02.615Z,19.23
2022-08-31T13:46:44.446Z,16.10
2022-08-31T13:49:32.405Z,14.00
2022-08-31T13:52:05.537Z,11.35
2022-08-31T13:57:19.669Z,10.80
2022-08-31T13:59:50.094Z,10.25
2022-08-31T14:02:37.068Z,10.10
2022-08-31T14:05:10.041Z,9.82
2022-08-31T14:08:09.574Z,9.85
2022-08-31T14:10:46.282Z,10.68
2022-08-31T14:13:20.914Z,10.02
2022-08-31T14:15:53.544Z,10.15
2022-08-31T14:18:28.564Z,8.93
2022-08-31T14:24:01.581Z,9.88
2022-08-31T14:26:34.708Z,9.98
2022-08-31T14:29:10.673Z,8.90
2022-08-31T14:31:46.961Z,8.48
2022-08-31T14:34:30.370Z,8.48
2022-08-31T14:37:06.597Z,7.15
2022-08-31T14:39:41.840Z,8.50
2022-08-31T14:42:17.361Z,7.70
2022-08-31T14:44:56.850Z,6.95
2022-08-31T14:47:29.718Z,8.32
2022-08-31T14:52:37.070Z,7.07
2022-08-31T14:55:11.302Z,6.47
2022-08-31T14:57:45.919Z,8.93
2022-08-31T15:00:23.359Z,8.32
2022-08-31T15:02:54.266Z,9.55
2022-08-31T15:05:26.300Z,10.20
2022-08-31T15:07:57.269Z,10.32
2022-08-31T15:10:28.903Z,10.15
2022-08-31T15:13:05.597Z,10.35
2022-08-31T15:15:37.982Z,10.35
2022-08-31T15:18:14.554Z,9.77
2022-08-31T15:20:44.657Z,9.57
2022-08-31T15:23:16.026Z,9.48
2022-08-31T15:25:47.383Z,9.02
2022-08-31T15:28:17.664Z,11.25
2022-08-31T15:30:48.484Z,8.82
2022-08-31T15:33:21.581Z,8.32
2022-08-31T15:35:52.036Z,8.82
2022-08-31T15:38:24.107Z,8.77
2022-08-31T15:40:55.474Z,8.00
2022-08-31T15:43:25.488Z,8.45
2022-08-31T15:45:55.598Z,8.10
2022-08-31T15:48:42.906Z,8.68
2022-08-31T15:51:20.631Z,9.45
2022-08-31T15:54:18.404Z,8.35
2022-08-31T15:56:44.127Z,7.60
2022-08-31T15:59:14.844Z,8.88
2022-08-31T16:01:44.811Z,9.05
2022-08-31T16:04:23.528Z,9.85
2022-08-31T16:06:55.567Z,8.27
2022-08-31T16:09:25.456Z,9.00
2022-08-31T16:11:56.918Z,8.25
2022-08-31T16:14:27.081Z,7.85
2022-08-31T16:16:59.849Z,9.68
2022-08-31T16:19:35.626Z,8.85
2022-08-31T16:22:08.074Z,9.35
2022-08-31T16:24:38.628Z,8.30
2022-08-31T16:27:12.588Z,8.88
2022-08-31T16:29:47.617Z,8.57
2022-08-31T16:32:18.320Z,9.13
2022-08-31T16:34:49.149Z,8.85
2022-08-31T16:37:19.307Z,8.18
2022-08-31T16:39:49.256Z,7.93
2022-08-31T16:42:20.717Z,8.68
2022-08-31T16:44:50.724Z,8.48
2022-08-31T16:47:20.703Z,9.40
2022-08-31T16:49:50.094Z,9.57
2022-08-31T16:52:24.261Z,9.35
2022-08-31T16:54:56.538Z,9.60
2022-08-31T16:57:32.635Z,11.02
2022-08-31T17:00:04.768Z,10.52
2022-08-31T17:02:34.684Z,10.85
2022-08-31T17:05:04.804Z,11.55
2022-08-31T17:07:34.762Z,11.80
2022-08-31T17:10:07.088Z,11.98
2022-08-31T17:12:42.009Z,11.98
2022-08-31T17:15:17.212Z,12.70
2022-08-31T17:17:48.086Z,10.85
2022-08-31T17:20:19.336Z,11.10
2022-08-31T17:22:50.911Z,11.18
2022-08-31T17:25:22.093Z,11.73
2022-08-31T17:27:59.829Z,11.38
2022-08-31T17:30:32.316Z,10.73
2022-08-31T17:33:02.491Z,11.57
2022-08-31T17:35:32.370Z,10.65
2022-08-31T17:38:03.286Z,11.10
2022-08-31T17:40:33.438Z,11.25
2022-08-31T17:43:04.825Z,11.38
2022-08-31T17:45:36.979Z,10.77
2022-08-31T17:48:06.928Z,11.10
2022-08-31T17:50:37.049Z,11.43
2022-08-31T17:53:06.964Z,11.95
2022-08-31T17:55:36.937Z,11.57
2022-08-31T17:58:08.508Z,11.52
2022-08-31T18:00:38.503Z,11.95
2022-08-31T18:03:08.628Z,11.98
2022-08-31T18:05:41.921Z,11.65
2022-08-31T18:08:14.158Z,11.00
2022-08-31T18:10:52.121Z,11.65
2022-08-31T18:13:24.408Z,11.95
2022-08-31T18:15:55.258Z,10.95
2022-08-31T18:18:25.227Z,11.98
2022-08-31T18:20:55.210Z,10.38
2022-08-31T18:23:25.279Z,11.63
2022-08-31T18:25:55.158Z,11.25
2022-08-31T18:28:26.405Z,13.10
2022-08-31T18:30:56.374Z,11.25
2022-08-31T18:33:26.495Z,12.32
2022-08-31T18:35:56.547Z,10.63
2022-08-31T18:38:26.464Z,12.18
2022-08-31T18:41:13.719Z,11.55
2022-08-31T18:44:14.119Z,11.68
2022-08-31T18:46:45.579Z,11.45
2022-08-31T18:49:15.527Z,12.60
2022-08-31T18:51:47.299Z,11.60
2022-08-31T18:54:17.988Z,11.40
2022-08-31T18:56:49.211Z,12.18
2022-08-31T18:59:21.504Z,10.77
2022-08-31T19:01:52.476Z,11.98
2022-08-31T19:04:23.061Z,11.50
2022-08-31T19:06:53.265Z,11.82
2022-08-31T19:09:24.180Z,10.48
2022-08-31T19:12:02.027Z,11.32
2022-08-31T19:14:35.184Z,11.15
2022-08-31T19:17:07.993Z,10.77
2022-08-31T19:19:38.352Z,10.13
2022-08-31T19:22:08.644Z,11.00
2022-08-31T19:24:40.880Z,10.55
2022-08-31T19:27:11.903Z,10.70
2022-08-31T19:29:43.550Z,10.63
2022-08-31T19:32:14.934Z,11.02
2022-08-31T19:34:48.079Z,10.20
2022-08-31T19:37:18.013Z,11.02
2022-08-31T19:39:49.733Z,10.55
2022-08-31T19:42:20.101Z,9.77
2022-08-31T19:45:22.919Z,10.70
2022-08-31T19:47:46.844Z,10.35
2022-08-31T19:50:17.953Z,11.18
2022-08-31T19:52:48.721Z,11.45
2022-08-31T19:55:18.873Z,10.40
2022-08-31T19:57:48.728Z,10.15
2022-08-31T20:00:20.383Z,10.52
2022-08-31T20:02:50.437Z,10.65
2022-08-31T20:05:21.006Z,10.57
2022-08-31T20:07:50.999Z,9.82
2022-08-31T20:10:30.057Z,9.57
2022-08-31T20:13:02.041Z,10.20
2022-08-31T20:15:33.605Z,10.85
2022-08-31T20:18:03.469Z,10.88
2022-08-31T20:20:36.175Z,9.82
2022-08-31T20:23:06.863Z,10.55
2022-08-31T20:25:38.759Z,10.38
2022-08-31T20:28:10.172Z,10.27
2022-08-31T20:30:43.501Z,10.20
2022-08-31T20:33:14.414Z,9.75
2022-08-31T20:35:47.590Z,10.18
2022-08-31T20:38:19.068Z,11.10
2022-08-31T20:40:52.340Z,11.27
2022-08-31T20:43:23.661Z,10.82
2022-08-31T20:45:55.283Z,11.20
2022-08-31T20:48:42.336Z,10.68
2022-08-31T20:51:16.264Z,10.93
2022-08-31T20:53:46.583Z,11.25
2022-08-31T20:56:18.951Z,11.10
2022-08-31T20:58:48.913Z,11.95
2022-08-31T21:01:21.719Z,12.02
2022-08-31T21:03:53.354Z,11.02
2022-08-31T21:06:26.136Z,10.70
2022-08-31T21:08:56.846Z,12.03
2022-08-31T21:11:26.863Z,11.00
2022-08-31T21:14:02.178Z,11.63
2022-08-31T21:16:35.842Z,12.38
2022-08-31T21:19:11.829Z,11.73
2022-08-31T21:21:43.363Z,12.45
2022-08-31T21:24:15.924Z,12.52
2022-08-31T21:26:46.542Z,12.45
2022-08-31T21:29:18.973Z,12.95
2022-08-31T21:31:56.830Z,13.77
2022-08-31T21:34:30.024Z,14.48
2022-08-31T21:37:00.568Z,13.93
2022-08-31T21:39:32.464Z,12.90
2022-08-31T21:42:02.548Z,13.38
2022-08-31T21:44:32.737Z,13.07
2022-08-31T21:47:04.518Z,13.88
2022-08-31T21:49:36.845Z,13.57
2022-08-31T21:52:06.784Z,13.27
2022-08-31T21:54:36.801Z,14.10
2022-08-31T21:57:06.874Z,13.50
2022-08-31T21:59:37.607Z,13.77
2022-08-31T22:02:11.447Z,13.60
2022-08-31T22:04:44.700Z,14.02
2022-08-31T22:07:15.377Z,14.25
2022-08-31T22:09:46.798Z,14.15
2022-08-31T22:12:18.056Z,13.95
2022-08-31T22:14:48.620Z,13.27
2022-08-31T22:17:20.827Z,13.13
2022-08-31T22:19:50.734Z,13.90
2022-08-31T22:22:23.565Z,13.30
2022-08-31T22:24:54.474Z,14.30
2022-08-31T22:27:24.971Z,13.57
2022-08-31T22:29:55.345Z,13.80
2022-08-31T22:32:26.731Z,14.52
2022-08-31T22:34:57.160Z,13.57
2022-08-31T22:37:27.019Z,13.65
2022-08-31T22:39:57.161Z,12.52
2022-08-31T22:42:27.903Z,13.15
2022-08-31T22:44:57.715Z,12.40
2022-08-31T22:47:29.010Z,14.00
2022-08-31T22:49:58.847Z,12.65
2022-08-31T22:52:28.777Z,14.07
2022-08-31T22:54:58.635Z,12.43
2022-08-31T22:57:28.716Z,13.45
2022-08-31T22:59:59.313Z,14.27
2022-08-31T23:02:31.253Z,13.80
2022-08-31T23:05:03.447Z,14.32
2022-08-31T23:07:33.301Z,13.93
2022-08-31T23:10:03.380Z,13.85
2022-08-31T23:12:33.464Z,13.48
2022-08-31T23:15:04.081Z,13.27
2022-08-31T23:17:35.430Z,13.65
2022-08-31T23:20:07.323Z,13.18
2022-08-31T23:22:37.259Z,13.95
2022-08-31T23:25:10.673Z,13.30
2022-08-31T23:27:40.728Z,13.70
2022-08-31T23:30:13.657Z,13.73
2022-08-31T23:32:44.978Z,12.02
2022-08-31T23:35:18.768Z,13.30
2022-08-31T23:37:52.262Z,13.57
2022-08-31T23:40:22.269Z,12.35
2022-08-31T23:42:52.638Z,13.52
2022-08-31T23:45:22.486Z,13.00
2022-08-31T23:47:57.772Z,12.63
2022-08-31T23:50:28.097Z,13.52
2022-08-31T23:52:59.123Z,12.60
2022-08-31T23:55:30.282Z,12.85
2022-08-31T23:58:02.392Z,12.63
